Time;durP1;ratioP1;P1;durP2;ratioP2;P2;SDS_P1;SDS_P2;PMS_P1;PMS_P2;Temp;Humidity;BMP_temperature;BMP_pressure;BME280_temperature;BME280_humidity;BME280_pressure;Samples;Min_cycle;Max_cycle;Signal;HPM_P1;HPM_P2
2023/06/04 00:00:25;;;;;;;9.23;7.97;;;22.90;45.20;;;;;;5032817;28;20197;-49
2023/06/04 00:02:50;;;;;;;9.93;8.50;;;22.90;45.20;;;;;;5033114;28;20498;-47
2023/06/04 00:05:16;;;;;;;9.70;8.80;;;22.80;45.20;;;;;;5032950;28;20197;-47
2023/06/04 00:07:41;;;;;;;9.03;8.13;;;22.80;45.10;;;;;;5032986;28;20197;-49
2023/06/04 00:10:07;;;;;;;9.53;7.80;;;22.80;45.10;;;;;;5032562;28;20240;-48
2023/06/04 00:12:33;;;;;;;9.40;8.50;;;22.70;45.00;;;;;;5032840;28;20193;-47
2023/06/04 00:14:59;;;;;;;9.10;8.00;;;22.70;45.30;;;;;;5032695;28;20503;-47
2023/06/04 00:17:24;;;;;;;10.40;8.13;;;22.60;45.20;;;;;;5032811;28;20189;-48
2023/06/04 00:19:50;;;;;;;10.47;9.47;;;22.60;45.20;;;;;;5030813;28;20197;-47
2023/06/04 00:22:15;;;;;;;10.53;9.43;;;22.50;45.10;;;;;;5032541;28;20194;-47
2023/06/04 00:24:41;;;;;;;9.83;8.80;;;22.50;45.00;;;;;;5032616;28;20198;-47
2023/06/04 00:27:08;;;;;;;11.67;10.27;;;22.40;45.00;;;;;;5032496;28;20197;-49
2023/06/04 00:29:33;;;;;;;10.13;9.17;;;22.30;45.00;;;;;;5032029;28;20201;-47
2023/06/04 00:31:59;;;;;;;10.70;9.30;;;22.30;44.90;;;;;;5032349;28;20471;-49
2023/06/04 00:34:25;;;;;;;10.60;9.17;;;22.20;44.80;;;;;;5032505;28;20204;-50
2023/06/04 00:36:50;;;;;;;9.87;8.97;;;22.20;44.90;;;;;;5032277;28;20274;-49
2023/06/04 00:39:16;;;;;;;9.40;8.43;;;22.20;45.00;;;;;;5030930;28;20189;-46
2023/06/04 00:41:41;;;;;;;10.63;9.20;;;22.10;45.10;;;;;;5032247;28;20204;-47
2023/06/04 00:44:07;;;;;;;9.50;8.47;;;22.10;45.00;;;;;;5031890;28;20564;-51
2023/06/04 00:46:35;;;;;;;9.93;8.90;;;22.00;45.10;;;;;;5030753;28;20189;-48
2023/06/04 00:49:01;;;;;;;9.50;8.50;;;22.10;45.10;;;;;;5031582;28;20189;-50
2023/06/04 00:51:30;;;;;;;9.17;7.57;;;22.00;45.10;;;;;;5031915;28;20778;-48
2023/06/04 00:53:56;;;;;;;8.23;7.27;;;22.00;45.00;;;;;;5031813;28;20795;-51
2023/06/04 00:56:22;;;;;;;8.70;7.90;;;22.00;45.00;;;;;;5031820;28;20570;-53
2023/06/04 00:58:47;;;;;;;8.07;7.20;;;22.00;45.00;;;;;;5031539;28;20189;-51
2023/06/04 01:01:31;;;;;;;8.67;7.23;;;21.90;44.60;;;;;;5032217;28;20197;-52
2023/06/04 01:03:59;;;;;;;7.57;6.77;;;21.90;44.40;;;;;;5031697;28;20576;-50
2023/06/04 01:06:39;;;;;;;7.27;6.67;;;21.90;44.50;;;;;;5031881;28;20466;-51
2023/06/04 01:09:05;;;;;;;9.43;8.53;;;21.90;44.40;;;;;;5031496;28;20423;-49
2023/06/04 01:11:36;;;;;;;9.50;7.00;;;21.80;44.50;;;;;;5030265;28;20535;-50
2023/06/04 01:14:03;;;;;;;9.47;7.37;;;21.90;44.60;;;;;;5031580;28;20519;-50
2023/06/04 01:16:36;;;;;;;7.97;7.17;;;21.80;44.50;;;;;;5031578;28;20967;-48
2023/06/04 01:19:04;;;;;;;9.80;7.60;;;21.80;44.80;;;;;;5031148;28;20424;-51
2023/06/04 01:21:32;;;;;;;8.43;7.57;;;21.80;44.90;;;;;;5031600;28;20438;-48
2023/06/04 01:24:01;;;;;;;8.10;7.40;;;21.80;44.80;;;;;;5031677;28;20486;-47
2023/06/04 01:26:29;;;;;;;8.50;7.47;;;21.70;44.50;;;;;;5031462;28;20444;-47
2023/06/04 01:28:56;;;;;;;8.47;7.53;;;21.70;44.60;;;;;;5031302;28;20432;-50
2023/06/04 01:31:24;;;;;;;7.70;6.97;;;21.70;44.70;;;;;;5031288;28;20837;-48
2023/06/04 01:33:53;;;;;;;7.70;6.83;;;21.60;44.50;;;;;;5031403;28;20441;-47
2023/06/04 01:36:19;;;;;;;11.03;7.23;;;21.70;44.40;;;;;;5031467;28;20511;-46
2023/06/04 01:38:46;;;;;;;7.20;6.50;;;21.60;44.30;;;;;;5029367;28;20997;-47
2023/06/04 01:41:11;;;;;;;7.40;6.60;;;21.60;44.40;;;;;;5031403;28;20424;-46
2023/06/04 01:43:37;;;;;;;7.80;7.10;;;21.60;44.30;;;;;;5031282;28;20772;-47
2023/06/04 01:46:03;;;;;;;6.57;5.97;;;21.60;44.30;;;;;;5031243;28;20185;-47
2023/06/04 01:48:29;;;;;;;6.97;6.37;;;21.60;44.40;;;;;;5030943;28;20193;-48
2023/06/04 01:50:55;;;;;;;7.83;7.10;;;21.50;44.40;;;;;;5031165;28;20940;-48
2023/06/04 01:53:20;;;;;;;8.70;7.67;;;21.50;44.60;;;;;;5031179;28;20201;-47
2023/06/04 01:55:48;;;;;;;6.93;6.27;;;21.40;44.90;;;;;;5030648;28;20398;-47
2023/06/04 01:58:22;;;;;;;7.23;6.53;;;21.40;45.00;;;;;;5031260;28;20201;-47
2023/06/04 02:00:52;;;;;;;7.00;6.30;;;21.30;45.00;;;;;;5030944;28;20475;-47
2023/06/04 02:03:18;;;;;;;9.13;6.80;;;21.30;44.90;;;;;;5030849;28;20911;-47
2023/06/04 02:05:46;;;;;;;7.87;7.00;;;21.30;44.70;;;;;;5029277;28;20561;-48
2023/06/04 02:08:18;;;;;;;7.73;6.00;;;21.20;44.70;;;;;;5031000;28;20451;-47
2023/06/04 02:10:46;;;;;;;7.97;6.90;;;21.10;44.90;;;;;;5030446;28;20432;-50
2023/06/04 02:13:12;;;;;;;8.17;6.37;;;21.10;44.90;;;;;;5030842;28;20433;-47
2023/06/04 02:15:38;;;;;;;8.60;6.00;;;21.10;45.00;;;;;;5030819;28;20518;-48
2023/06/04 02:18:18;;;;;;;8.40;7.00;;;21.00;45.10;;;;;;5030859;28;20524;-46
2023/06/04 02:20:44;;;;;;;7.93;6.40;;;20.90;45.20;;;;;;5030310;28;20200;-48
2023/06/04 02:23:11;;;;;;;8.00;7.00;;;20.80;45.10;;;;;;5030793;28;20843;-48
2023/06/04 02:25:36;;;;;;;7.23;6.53;;;20.80;45.30;;;;;;5030861;28;20432;-47
2023/06/04 02:28:02;;;;;;;8.00;6.80;;;20.80;45.40;;;;;;5030727;28;20428;-47
2023/06/04 02:30:27;;;;;;;7.60;6.10;;;20.70;45.40;;;;;;5028502;28;20672;-47
2023/06/04 02:32:54;;;;;;;6.80;6.20;;;20.70;45.50;;;;;;5030841;28;20208;-49
2023/06/04 02:35:24;;;;;;;6.97;6.27;;;20.70;45.20;;;;;;5030715;28;20266;-47
2023/06/04 02:37:50;;;;;;;7.73;6.93;;;20.70;45.40;;;;;;5030642;28;20440;-50
2023/06/04 02:40:16;;;;;;;9.73;6.93;;;20.50;46.70;;;;;;5028875;28;20522;-48
2023/06/04 02:42:42;;;;;;;9.00;7.00;;;20.50;47.30;;;;;;5031021;28;20516;-50
2023/06/04 02:45:08;;;;;;;17.00;7.40;;;20.40;47.60;;;;;;5030520;28;20193;-47
2023/06/04 02:47:33;;;;;;;9.97;7.47;;;20.40;47.90;;;;;;5030584;28;20806;-48
2023/06/04 02:49:59;;;;;;;8.63;7.83;;;20.40;47.80;;;;;;5030053;28;20899;-49
2023/06/04 02:52:25;;;;;;;8.43;7.73;;;20.40;47.80;;;;;;5030453;28;20219;-49
2023/06/04 02:54:51;;;;;;;8.63;7.73;;;20.30;47.80;;;;;;5030109;28;20274;-47
2023/06/04 02:57:17;;;;;;;7.97;7.17;;;20.40;47.90;;;;;;5028781;28;20190;-47
2023/06/04 02:59:42;;;;;;;8.90;7.77;;;20.30;47.90;;;;;;5030153;28;20816;-47
2023/06/04 03:02:08;;;;;;;8.10;7.30;;;20.30;47.90;;;;;;5030474;28;20280;-47
2023/06/04 03:04:34;;;;;;;9.10;8.20;;;20.30;47.90;;;;;;5033898;28;20719;-48
2023/06/04 03:07:04;;;;;;;7.63;6.93;;;20.30;48.20;;;;;;5033986;28;20552;-48
2023/06/04 03:09:33;;;;;;;7.73;7.00;;;20.30;48.40;;;;;;5033661;28;20550;-47
2023/06/04 03:12:03;;;;;;;8.00;7.20;;;20.20;48.30;;;;;;5033882;28;20454;-47
2023/06/04 03:14:32;;;;;;;7.73;6.93;;;20.20;48.40;;;;;;5033820;28;20446;-47
2023/06/04 03:17:00;;;;;;;15.73;6.70;;;20.10;48.40;;;;;;5033584;28;20490;-48
2023/06/04 03:19:27;;;;;;;8.43;6.93;;;20.10;48.40;;;;;;5033410;28;20452;-48
2023/06/04 03:21:53;;;;;;;7.40;6.70;;;20.10;48.50;;;;;;5033988;28;20432;-48
2023/06/04 03:24:19;;;;;;;8.17;7.23;;;20.10;48.40;;;;;;5031123;28;20958;-48
2023/06/04 03:26:45;;;;;;;8.57;7.13;;;20.00;48.60;;;;;;5033490;28;20872;-48
2023/06/04 03:29:11;;;;;;;9.10;8.30;;;19.90;48.70;;;;;;5033266;28;20185;-48
2023/06/04 03:31:37;;;;;;;8.10;7.30;;;19.90;48.60;;;;;;5033462;28;20336;-49
2023/06/04 03:34:02;;;;;;;7.97;7.20;;;19.90;48.60;;;;;;5033417;28;20511;-47
2023/06/04 03:36:31;;;;;;;8.07;7.03;;;19.90;48.80;;;;;;5033375;28;20224;-47
2023/06/04 03:38:57;;;;;;;7.27;6.57;;;19.80;48.70;;;;;;5033080;28;20201;-47
2023/06/04 03:41:23;;;;;;;8.73;6.97;;;19.80;48.60;;;;;;5033362;28;20943;-50
2023/06/04 03:43:48;;;;;;;7.80;7.00;;;19.80;48.60;;;;;;5033477;28;20514;-51
2023/06/04 03:46:14;;;;;;;7.37;6.67;;;19.80;48.50;;;;;;5033254;28;20608;-49
2023/06/04 03:48:41;;;;;;;7.67;6.87;;;19.80;48.70;;;;;;5033064;28;20209;-47
2023/06/04 03:51:07;;;;;;;8.10;6.90;;;19.70;48.80;;;;;;5031862;28;20197;-49
2023/06/04 03:53:32;;;;;;;6.93;6.27;;;19.70;48.90;;;;;;5033305;28;21018;-47
2023/06/04 03:55:58;;;;;;;7.70;7.00;;;19.60;49.00;;;;;;5032781;28;20249;-47
2023/06/04 03:58:24;;;;;;;9.27;7.23;;;19.50;49.00;;;;;;5033084;28;20196;-47
2023/06/04 04:00:50;;;;;;;7.97;6.37;;;19.50;49.10;;;;;;5032918;28;20267;-47
2023/06/04 04:03:15;;;;;;;8.33;6.70;;;19.50;49.10;;;;;;5032786;28;20463;-47
2023/06/04 04:05:41;;;;;;;7.13;6.43;;;19.50;49.20;;;;;;5033039;28;20204;-47
2023/06/04 04:08:08;;;;;;;7.23;6.53;;;19.50;49.30;;;;;;5032823;28;20220;-46
2023/06/04 04:10:34;;;;;;;6.03;5.53;;;19.50;49.20;;;;;;5032502;28;20208;-47
2023/06/04 04:13:00;;;;;;;6.87;6.17;;;19.50;49.20;;;;;;5032823;28;20424;-47
2023/06/04 04:15:25;;;;;;;15.77;6.53;;;19.50;49.10;;;;;;5032547;28;20255;-47
2023/06/04 04:17:51;;;;;;;6.60;5.90;;;19.60;49.80;;;;;;5031510;28;20238;-47
2023/06/04 04:20:18;;;;;;;6.57;6.07;;;19.50;49.10;;;;;;5032259;28;20296;-47
2023/06/04 04:22:43;;;;;;;6.83;6.20;;;19.60;49.20;;;;;;5032749;28;20197;-47
2023/06/04 04:25:09;;;;;;;7.23;6.23;;;19.60;49.30;;;;;;5032415;28;20578;-48
2023/06/04 04:27:38;;;;;;;6.53;5.87;;;19.60;49.30;;;;;;5032623;28;20201;-48
2023/06/04 04:30:05;;;;;;;6.80;6.07;;;19.60;49.80;;;;;;5032021;28;20510;-46
2023/06/04 04:32:31;;;;;;;6.80;6.20;;;19.70;49.20;;;;;;5032295;28;20440;-47
2023/06/04 04:34:57;;;;;;;7.70;5.53;;;19.70;49.10;;;;;;5032231;28;20424;-49
2023/06/04 04:37:23;;;;;;;8.03;5.57;;;19.70;49.10;;;;;;5032507;28;20435;-49
2023/06/04 04:39:52;;;;;;;6.20;5.60;;;19.80;49.00;;;;;;5031822;28;20220;-48
2023/06/04 04:42:18;;;;;;;6.27;5.77;;;19.70;49.00;;;;;;5032180;28;20442;-47
2023/06/04 04:44:47;;;;;;;7.17;6.47;;;19.70;49.00;;;;;;5030568;28;20412;-47
2023/06/04 04:47:14;;;;;;;6.70;5.83;;;19.80;49.10;;;;;;5032200;28;20436;-46
2023/06/04 04:49:39;;;;;;;9.17;6.70;;;19.80;49.10;;;;;;5031671;28;20431;-47
2023/06/04 04:52:05;;;;;;;8.30;6.10;;;19.80;49.10;;;;;;5032422;28;20436;-47
2023/06/04 04:54:30;;;;;;;6.67;6.07;;;19.90;49.20;;;;;;5031915;28;20217;-46
2023/06/04 04:56:56;;;;;;;6.63;6.03;;;19.80;49.00;;;;;;5031875;28;20229;-47
2023/06/04 04:59:21;;;;;;;8.83;6.80;;;19.90;49.00;;;;;;5031509;28;20193;-47
2023/06/04 05:01:47;;;;;;;7.20;6.20;;;19.60;49.50;;;;;;5031878;28;20228;-47
2023/06/04 05:04:12;;;;;;;8.40;5.67;;;19.70;49.70;;;;;;5031827;28;20197;-48
2023/06/04 05:06:38;;;;;;;6.43;5.13;;;19.70;49.00;;;;;;5031826;28;20204;-47
2023/06/04 05:09:03;;;;;;;5.93;5.33;;;19.80;48.50;;;;;;5030696;28;20232;-49
2023/06/04 05:11:29;;;;;;;5.40;4.67;;;19.80;48.10;;;;;;5031411;28;20185;-47
2023/06/04 05:13:55;;;;;;;4.70;4.30;;;19.90;47.80;;;;;;5032054;28;20221;-48
2023/06/04 05:16:22;;;;;;;7.50;4.73;;;20.00;47.40;;;;;;5031745;28;20675;-48
2023/06/04 05:18:51;;;;;;;6.13;3.93;;;20.00;46.70;;;;;;5031230;28;20656;-48
2023/06/04 05:21:16;;;;;;;4.37;4.00;;;19.60;46.20;;;;;;5031630;28;20551;-47
2023/06/04 05:23:44;;;;;;;5.73;4.63;;;19.30;46.60;;;;;;5031532;28;20983;-47
2023/06/04 05:26:09;;;;;;;4.60;3.90;;;19.30;47.00;;;;;;5031117;28;20197;-48
2023/06/04 05:28:35;;;;;;;4.00;3.60;;;19.00;47.40;;;;;;5030985;28;20930;-49
2023/06/04 05:31:00;;;;;;;4.07;3.47;;;18.90;47.40;;;;;;5031292;28;20226;-48
2023/06/04 05:33:27;;;;;;;5.90;3.80;;;19.10;47.30;;;;;;5030956;28;20240;-48
2023/06/04 05:35:53;;;;;;;8.10;4.07;;;19.30;46.70;;;;;;5029742;28;20631;-49
2023/06/04 05:38:20;;;;;;;6.60;4.20;;;19.60;46.50;;;;;;5030867;28;20520;-47
2023/06/04 05:40:46;;;;;;;3.60;3.30;;;19.80;46.10;;;;;;5031275;28;20431;-47
2023/06/04 05:43:12;;;;;;;4.87;3.80;;;20.00;45.80;;;;;;5031150;28;20466;-47
2023/06/04 05:45:38;;;;;;;4.63;3.70;;;20.10;45.70;;;;;;5031206;28;20432;-47
2023/06/04 05:48:04;;;;;;;3.30;2.90;;;20.20;45.20;;;;;;5030662;28;20452;-48
2023/06/04 05:50:30;;;;;;;4.20;3.80;;;20.00;44.50;;;;;;5031175;28;20196;-47
2023/06/04 05:52:56;;;;;;;3.33;2.87;;;20.00;45.00;;;;;;5031019;28;20431;-48
2023/06/04 05:55:22;;;;;;;3.87;2.77;;;19.90;44.70;;;;;;5030979;28;20521;-47
2023/06/04 05:57:51;;;;;;;3.70;2.90;;;19.70;43.90;;;;;;5031017;28;20506;-47
2023/06/04 06:00:17;;;;;;;2.80;2.60;;;19.40;44.30;;;;;;5030694;28;20197;-48
2023/06/04 06:02:43;;;;;;;3.27;2.90;;;19.70;44.30;;;;;;5029376;28;20439;-47
2023/06/04 06:05:09;;;;;;;3.67;2.97;;;20.00;44.20;;;;;;5031083;28;20432;-48
2023/06/04 06:07:35;;;;;;;5.60;2.80;;;20.20;43.40;;;;;;5030982;28;20192;-47
2023/06/04 06:10:01;;;;;;;2.53;2.33;;;20.20;43.00;;;;;;5030663;28;20204;-48
2023/06/04 06:12:27;;;;;;;4.00;2.60;;;20.50;42.60;;;;;;5030742;28;20798;-49
2023/06/04 06:14:52;;;;;;;4.43;2.73;;;20.70;42.20;;;;;;5030895;28;20424;-50
2023/06/04 06:17:18;;;;;;;3.23;2.53;;;20.70;41.70;;;;;;5030811;28;20696;-49
2023/06/04 06:19:43;;;;;;;3.07;2.37;;;20.70;40.90;;;;;;5030604;28;20189;-47
2023/06/04 06:22:10;;;;;;;3.43;2.17;;;20.60;40.90;;;;;;5030707;28;20196;-49
2023/06/04 06:24:35;;;;;;;2.60;2.40;;;20.80;41.40;;;;;;5030968;28;20197;-47
2023/06/04 06:27:01;;;;;;;6.10;2.50;;;21.00;41.20;;;;;;5030744;28;20451;-48
2023/06/04 06:29:27;;;;;;;9.60;2.80;;;21.10;41.10;;;;;;5028819;28;20193;-48
2023/06/04 06:31:52;;;;;;;2.67;2.40;;;21.20;40.90;;;;;;5030633;28;20736;-47
2023/06/04 06:34:18;;;;;;;3.17;2.17;;;21.40;40.50;;;;;;5030614;28;20197;-47
2023/06/04 06:36:44;;;;;;;2.30;2.10;;;21.60;40.10;;;;;;5030700;28;20241;-47
2023/06/04 06:39:10;;;;;;;5.77;3.50;;;21.50;40.40;;;;;;5033424;28;20193;-52
2023/06/04 06:41:38;;;;;;;3.13;2.80;;;21.40;40.50;;;;;;5034307;28;20225;-46
2023/06/04 06:44:04;;;;;;;3.03;2.37;;;21.50;40.30;;;;;;5034438;28;20428;-48
2023/06/04 06:46:29;;;;;;;3.83;2.60;;;21.70;40.50;;;;;;5034354;28;20903;-47
2023/06/04 06:48:55;;;;;;;3.10;2.80;;;22.00;39.60;;;;;;5034210;28;20531;-51
2023/06/04 06:51:20;;;;;;;3.90;3.27;;;22.40;39.80;;;;;;5034319;28;20257;-47
2023/06/04 06:53:46;;;;;;;2.47;2.27;;;22.60;38.50;;;;;;5034228;28;20184;-47
2023/06/04 06:56:13;;;;;;;3.77;2.17;;;22.80;38.90;;;;;;5032582;28;20279;-52
2023/06/04 06:58:39;;;;;;;6.07;2.27;;;23.10;39.10;;;;;;5033849;28;20196;-46
2023/06/04 07:01:05;;;;;;;4.97;2.80;;;23.20;37.90;;;;;;5034072;28;20793;-47
2023/06/04 07:03:31;;;;;;;5.30;2.40;;;23.40;37.60;;;;;;5034186;28;20621;-49
2023/06/04 07:05:57;;;;;;;2.87;2.40;;;23.60;37.20;;;;;;5033783;28;20487;-48
2023/06/04 07:08:22;;;;;;;3.13;2.83;;;23.80;37.80;;;;;;5033742;28;20444;-48
2023/06/04 07:10:48;;;;;;;5.13;2.60;;;24.00;37.90;;;;;;5033986;28;20268;-48
2023/06/04 07:13:14;;;;;;;3.37;2.80;;;24.30;38.10;;;;;;5034072;28;20189;-50
2023/06/04 07:15:39;;;;;;;2.67;2.47;;;24.10;36.80;;;;;;5032428;28;20229;-47
2023/06/04 07:18:05;;;;;;;2.60;2.17;;;24.10;36.90;;;;;;5033720;28;20192;-49
2023/06/04 07:20:30;;;;;;;5.40;2.43;;;24.30;37.40;;;;;;5033739;28;20189;-48
2023/06/04 07:22:56;;;;;;;4.40;2.47;;;24.50;36.90;;;;;;5032207;28;20189;-48
2023/06/04 07:25:23;;;;;;;2.80;2.30;;;24.70;37.40;;;;;;5033696;28;20608;-48
2023/06/04 07:27:50;;;;;;;5.00;2.77;;;24.90;37.60;;;;;;5033589;28;20432;-50
2023/06/04 07:30:16;;;;;;;3.10;2.37;;;25.10;36.80;;;;;;5033473;28;20436;-47
2023/06/04 07:32:46;;;;;;;3.00;2.43;;;25.10;36.20;;;;;;5033490;28;20443;-47
2023/06/04 07:35:12;;;;;;;2.40;2.20;;;25.20;36.80;;;;;;5033400;28;20185;-52
2023/06/04 07:37:38;;;;;;;4.77;2.47;;;25.50;36.10;;;;;;5033381;28;20431;-49
2023/06/04 07:40:04;;;;;;;4.33;2.63;;;25.60;35.70;;;;;;5033014;28;20194;-48
2023/06/04 07:42:29;;;;;;;3.53;2.47;;;25.80;35.30;;;;;;5033385;28;20716;-48
2023/06/04 07:44:55;;;;;;;2.70;2.50;;;25.90;34.90;;;;;;5033286;28;20418;-49
2023/06/04 07:47:22;;;;;;;3.60;2.40;;;26.10;35.20;;;;;;5033373;28;20616;-48
2023/06/04 07:49:47;;;;;;;3.23;2.77;;;26.20;34.40;;;;;;5030922;28;20300;-47
2023/06/04 07:52:14;;;;;;;4.20;2.90;;;26.30;33.60;;;;;;5033372;28;21042;-48
2023/06/04 07:54:41;;;;;;;2.87;2.30;;;26.20;33.00;;;;;;5032866;28;20241;-47
2023/06/04 07:57:07;;;;;;;2.73;2.53;;;25.90;33.50;;;;;;5033046;28;20513;-48
2023/06/04 07:59:32;;;;;;;3.00;2.60;;;25.90;34.10;;;;;;5032632;28;20416;-48
2023/06/04 08:01:58;;;;;;;3.50;2.30;;;26.20;34.90;;;;;;5032919;28;20570;-51
2023/06/04 08:04:23;;;;;;;2.70;2.50;;;26.50;34.10;;;;;;5033064;28;20189;-48
2023/06/04 08:06:49;;;;;;;3.23;2.70;;;26.90;33.60;;;;;;5032967;28;20184;-47
2023/06/04 08:09:15;;;;;;;3.13;2.80;;;27.20;32.80;;;;;;5032542;28;20243;-48
2023/06/04 08:11:43;;;;;;;4.00;3.27;;;27.50;33.20;;;;;;5033039;28;20420;-47
2023/06/04 08:14:08;;;;;;;3.23;2.90;;;27.40;32.00;;;;;;5031425;28;20200;-48
2023/06/04 08:16:34;;;;;;;2.93;2.73;;;27.40;32.00;;;;;;5031295;28;20824;-50
2023/06/04 08:18:59;;;;;;;3.17;2.87;;;27.20;32.30;;;;;;5032271;28;20208;-49
2023/06/04 08:21:26;;;;;;;3.83;3.00;;;27.30;33.20;;;;;;5032858;28;20284;-50
2023/06/04 08:23:53;;;;;;;4.30;3.40;;;27.30;32.70;;;;;;5028532;28;20705;-51
2023/06/04 08:26:19;;;;;;;5.60;2.80;;;27.60;32.30;;;;;;5018820;28;20444;-52
2023/06/04 08:28:48;;;;;;;3.17;2.87;;;27.80;31.60;;;;;;5032448;28;20862;-52
2023/06/04 08:31:14;;;;;;;4.13;3.00;;;28.10;32.20;;;;;;5018783;28;20526;-53
2023/06/04 08:33:41;;;;;;;4.30;3.10;;;28.20;31.50;;;;;;5024236;28;20589;-50
2023/06/04 08:36:06;;;;;;;3.40;2.80;;;28.30;31.60;;;;;;5021057;28;20479;-47
2023/06/04 08:38:32;;;;;;;3.00;2.70;;;28.40;31.80;;;;;;5023618;28;20868;-48
2023/06/04 08:41:05;;;;;;;5.10;2.70;;;28.60;31.30;;;;;;5021745;28;20226;-50
2023/06/04 08:43:33;;;;;;;2.90;2.70;;;28.70;31.40;;;;;;5021514;28;20189;-51
2023/06/04 08:46:01;;;;;;;4.03;2.90;;;28.90;32.00;;;;;;5025048;28;20494;-51
2023/06/04 08:48:29;;;;;;;3.63;2.90;;;29.10;30.40;;;;;;5020795;28;20494;-48
2023/06/04 08:50:57;;;;;;;3.30;3.00;;;29.40;29.90;;;;;;5021592;28;20811;-52
2023/06/04 08:53:23;;;;;;;4.33;3.00;;;29.40;29.10;;;;;;5020637;28;20514;-50
2023/06/04 08:55:54;;;;;;;3.10;2.90;;;29.50;29.40;;;;;;5016137;28;20487;-50
2023/06/04 08:58:20;;;;;;;3.23;2.93;;;29.60;29.10;;;;;;5022096;28;20831;-51
2023/06/04 09:00:46;;;;;;;2.90;2.67;;;29.70;29.60;;;;;;5024367;28;20550;-52
2023/06/04 09:03:14;;;;;;;3.33;3.03;;;29.70;29.50;;;;;;5019649;28;20441;-52
2023/06/04 09:05:42;;;;;;;3.37;2.80;;;29.70;30.20;;;;;;5015064;28;20197;-52
2023/06/04 09:08:11;;;;;;;6.97;3.20;;;29.90;28.90;;;;;;5023822;28;20522;-51
2023/06/04 09:10:38;;;;;;;4.00;2.80;;;29.80;28.40;;;;;;5015321;28;20455;-51
2023/06/04 09:13:06;;;;;;;4.30;3.10;;;30.00;29.50;;;;;;5026386;28;20570;-50
2023/06/04 09:15:32;;;;;;;4.73;3.10;;;30.30;29.50;;;;;;5028826;28;20476;-52
2023/06/04 09:17:57;;;;;;;3.77;3.00;;;30.50;28.20;;;;;;5026642;28;20448;-53
2023/06/04 09:20:24;;;;;;;3.23;2.93;;;30.30;27.80;;;;;;5028381;28;20225;-49
2023/06/04 09:22:52;;;;;;;5.80;3.40;;;30.20;28.30;;;;;;5029707;28;20204;-52
2023/06/04 09:25:27;;;;;;;4.17;3.77;;;30.50;28.70;;;;;;5029381;28;20527;-52
2023/06/04 09:27:57;;;;;;;4.17;3.10;;;30.50;27.10;;;;;;5028092;28;20442;-53
2023/06/04 09:30:23;;;;;;;4.80;3.00;;;30.70;27.00;;;;;;5018352;28;20453;-51
2023/06/04 09:32:49;;;;;;;3.73;3.43;;;30.90;27.00;;;;;;5026485;28;20428;-48
2023/06/04 09:35:17;;;;;;;4.20;3.17;;;30.70;27.90;;;;;;5031838;28;21143;-48
2023/06/04 09:37:53;;;;;;;6.23;3.73;;;30.80;26.80;;;;;;5019178;28;20194;-52
2023/06/04 09:40:19;;;;;;;5.10;3.00;;;30.70;27.10;;;;;;5017881;28;20451;-52
2023/06/04 09:42:49;;;;;;;4.20;3.37;;;30.90;27.30;;;;;;5021268;28;20449;-49
2023/06/04 09:45:30;;;;;;;3.43;3.13;;;30.90;27.00;;;;;;5028665;28;20436;-51
2023/06/04 09:47:56;;;;;;;4.53;3.13;;;30.80;27.30;;;;;;5021811;28;20474;-50
2023/06/04 09:50:26;;;;;;;5.80;3.30;;;30.80;26.60;;;;;;5031879;28;20420;-50
2023/06/04 09:52:52;;;;;;;3.17;2.87;;;30.90;26.80;;;;;;5029485;28;20193;-52
2023/06/04 09:55:20;;;;;;;4.27;3.20;;;31.00;27.60;;;;;;5031497;28;20456;-52
2023/06/04 09:57:49;;;;;;;3.17;2.90;;;31.10;26.90;;;;;;5029402;28;20479;-52
2023/06/04 10:00:28;;;;;;;3.50;3.10;;;31.30;26.60;;;;;;5029337;28;20444;-52
2023/06/04 10:02:57;;;;;;;3.43;3.13;;;31.30;27.10;;;;;;5029192;28;20562;-52
2023/06/04 10:05:24;;;;;;;3.70;3.30;;;31.60;26.80;;;;;;5028793;28;20507;-51
2023/06/04 10:07:52;;;;;;;4.67;3.30;;;31.70;25.90;;;;;;5019832;28;20435;-50
2023/06/04 10:10:24;;;;;;;3.37;3.07;;;31.90;26.80;;;;;;5031422;28;20428;-49
2023/06/04 10:13:04;;;;;;;5.10;3.40;;;32.20;25.80;;;;;;5027511;28;20511;-50
2023/06/04 10:15:33;;;;;;;2.60;2.40;;;31.80;25.20;;;;;;5034173;28;20554;-47
2023/06/04 10:17:59;;;;;;;4.37;3.40;;;31.20;25.90;;;;;;5029221;28;20954;-48
2023/06/04 10:20:25;;;;;;;3.17;2.83;;;31.50;26.10;;;;;;5035523;28;20453;-52
2023/06/04 10:22:51;;;;;;;4.60;3.27;;;31.40;26.40;;;;;;5033424;28;20432;-47
2023/06/04 10:25:19;;;;;;;5.40;3.20;;;31.70;26.90;;;;;;5034662;28;20645;-47
2023/06/04 10:27:46;;;;;;;4.13;3.73;;;32.00;25.90;;;;;;5028368;28;20199;-48
2023/06/04 10:30:12;;;;;;;5.67;3.30;;;32.20;24.90;;;;;;5035254;28;20829;-48
2023/06/04 10:32:38;;;;;;;4.30;3.90;;;32.70;25.50;;;;;;5030670;28;20535;-48
2023/06/04 10:35:06;;;;;;;4.17;3.50;;;33.00;24.90;;;;;;5032159;28;20515;-48
2023/06/04 10:37:32;;;;;;;5.37;4.27;;;32.90;24.10;;;;;;5033221;28;20252;-51
2023/06/04 10:39:58;;;;;;;4.53;4.10;;;33.00;25.40;;;;;;5033773;28;20436;-47
2023/06/04 10:42:25;;;;;;;4.07;3.53;;;33.10;25.30;;;;;;5034318;28;20197;-47
2023/06/04 10:44:55;;;;;;;5.33;4.83;;;33.30;25.40;;;;;;5035196;28;20420;-48
2023/06/04 10:47:31;;;;;;;4.47;4.07;;;33.60;24.60;;;;;;5033159;28;20444;-48
2023/06/04 10:50:11;;;;;;;3.73;3.33;;;33.80;23.60;;;;;;5035104;28;20430;-48
2023/06/04 10:52:39;;;;;;;4.90;4.50;;;34.00;23.50;;;;;;5029719;28;20982;-47
2023/06/04 10:55:07;;;;;;;6.20;5.70;;;34.30;23.20;;;;;;5034379;28;20587;-47
2023/06/04 10:57:32;;;;;;;7.87;4.90;;;34.60;23.40;;;;;;5029378;28;20536;-48
2023/06/04 10:59:59;;;;;;;3.63;3.33;;;34.90;23.60;;;;;;5033019;28;20475;-47
2023/06/04 11:02:25;;;;;;;5.77;4.33;;;35.10;23.00;;;;;;5029511;28;20212;-49
2023/06/04 11:05:06;;;;;;;6.43;5.93;;;34.90;22.70;;;;;;5039350;28;20910;-48
2023/06/04 11:07:48;;;;;;;4.40;4.00;;;35.00;23.00;;;;;;5033750;28;20457;-47
2023/06/04 11:10:15;;;;;;;6.40;3.50;;;35.10;22.70;;;;;;5033340;28;20444;-48
2023/06/04 11:12:50;;;;;;;5.87;4.60;;;35.10;22.40;;;;;;5035463;28;21409;-48
2023/06/04 11:15:16;;;;;;;3.97;3.57;;;35.10;23.20;;;;;;5027293;28;20439;-47
2023/06/04 11:17:55;;;;;;;5.13;4.20;;;35.20;23.10;;;;;;5034090;28;20472;-47
2023/06/04 11:20:22;;;;;;;5.10;4.53;;;35.30;22.60;;;;;;5031437;28;20455;-48
2023/06/04 11:22:55;;;;;;;6.00;4.40;;;35.30;23.20;;;;;;5023178;28;20455;-47
2023/06/04 11:25:22;;;;;;;5.40;4.40;;;35.20;22.90;;;;;;5029691;28;20432;-51
2023/06/04 11:27:48;;;;;;;3.43;3.23;;;35.20;21.70;;;;;;5030068;28;21320;-48
2023/06/04 11:30:15;;;;;;;4.07;3.67;;;34.90;21.90;;;;;;5034203;28;20795;-47
2023/06/04 11:32:40;;;;;;;4.63;3.87;;;34.50;23.60;;;;;;5031952;28;20436;-51
2023/06/04 11:35:07;;;;;;;5.57;4.07;;;34.50;23.00;;;;;;5033179;28;20448;-52
2023/06/04 11:37:33;;;;;;;4.33;3.93;;;34.40;22.90;;;;;;5027974;28;20190;-53
2023/06/04 11:40:00;;;;;;;7.70;3.90;;;34.60;23.20;;;;;;5038454;28;20482;-52
2023/06/04 11:42:27;;;;;;;4.27;3.90;;;34.80;23.70;;;;;;5033944;28;20416;-51
2023/06/04 11:44:57;;;;;;;4.90;4.40;;;35.00;23.30;;;;;;5034002;28;20424;-52
2023/06/04 11:47:23;;;;;;;5.10;4.13;;;35.10;23.20;;;;;;5029678;28;20446;-52
2023/06/04 11:49:58;;;;;;;4.10;3.70;;;35.20;23.00;;;;;;5031394;28;20793;-51
2023/06/04 11:52:23;;;;;;;3.87;3.57;;;35.50;22.10;;;;;;5027449;28;20516;-53
2023/06/04 11:54:49;;;;;;;4.60;4.00;;;35.70;21.70;;;;;;5029284;28;20562;-53
2023/06/04 11:57:15;;;;;;;4.37;4.07;;;35.70;22.60;;;;;;5026567;28;21010;-51
2023/06/04 11:59:41;;;;;;;4.20;3.80;;;35.60;22.70;;;;;;5030629;28;20451;-52
2023/06/04 12:02:07;;;;;;;4.20;3.80;;;35.50;22.80;;;;;;5035945;28;20201;-52
2023/06/04 12:04:33;;;;;;;4.17;3.80;;;35.60;22.60;;;;;;5031230;28;20526;-52
2023/06/04 12:07:01;;;;;;;5.10;4.60;;;35.70;22.60;;;;;;5029540;28;20440;-52
2023/06/04 12:09:32;;;;;;;4.40;4.10;;;35.90;22.10;;;;;;5026773;28;20200;-52
2023/06/04 12:11:59;;;;;;;4.57;4.17;;;35.70;22.30;;;;;;5033107;28;20435;-53
2023/06/04 12:14:25;;;;;;;4.00;3.60;;;35.50;22.50;;;;;;5031999;28;20565;-50
2023/06/04 12:16:57;;;;;;;4.87;3.80;;;35.60;21.80;;;;;;5033181;28;21050;-51
2023/06/04 12:19:23;;;;;;;4.57;3.37;;;35.80;22.60;;;;;;5032720;28;20190;-51
2023/06/04 12:22:02;;;;;;;4.83;4.03;;;35.70;22.70;;;;;;5030993;28;20978;-48
2023/06/04 12:24:29;;;;;;;5.00;4.60;;;35.80;22.40;;;;;;5025473;28;20232;-50
2023/06/04 12:27:25;;;;;;;3.93;3.53;;;35.80;21.20;;;;;;5021785;28;20483;-52
2023/06/04 12:30:05;;;;;;;7.20;4.07;;;36.00;21.80;;;;;;5026375;28;20541;-49
2023/06/04 12:32:34;;;;;;;4.27;3.77;;;36.10;20.60;;;;;;5027535;28;20455;-48
2023/06/04 12:34:59;;;;;;;4.33;3.67;;;35.90;21.70;;;;;;5023165;28;20440;-49
2023/06/04 12:37:25;;;;;;;6.00;3.60;;;36.00;21.30;;;;;;5018599;28;20546;-53
2023/06/04 12:39:51;;;;;;;4.73;4.13;;;36.00;22.10;;;;;;5019564;28;20277;-48
2023/06/04 12:42:18;;;;;;;4.90;3.80;;;36.00;20.60;;;;;;5017923;28;20197;-48
2023/06/04 12:44:44;;;;;;;4.33;3.90;;;36.00;21.20;;;;;;5018479;28;20562;-50